Messinia, Greece

10:11 PM EEST on September 02, 2015 (GMT +0300)
Kalamata Air Base | | Change Station
CLOSE
Current Station
Airport
Location: Kalamata,
Elevation: 26 ft
Nearby Weather Stations

Elev 26 ft 37.07 °N, 22.03 °E | Updated 21 minutes ago

Partly Cloudy
Partly Cloudy
77 °F
Feels Like 77 °F
N
0
Wind Variable Wind from North

Today
High -- | Low -- °F
--% Chance of Precip.
Yesterday
High -- | Low -- °F
Precip. -- in
7:03 AM 7:59 PM
Waning Gibbous, 78% visible
Pressure 29.89 in
Visibility 6.2 miles
Clouds Few 3000 ft
Dew Point 70 °F
Humidity 78%
Rainfall 0.00 in
Snow Depth Not available.
UV 0 out of 12
Pollen Not available.
Air Quality Not available.
Flu Activity Not available.
METAR LGKL 021850Z 00000KT 9999 FEW030 25/21 Q1012
Pressure 29.89 in
Visibility 6.2 miles
Clouds Few 3000 ft
Dew Point 70 °F
Humidity 78%
Rainfall 0.00 in
Snow Depth Not available.
UV 0 out of 12
Pollen Not available.
Air Quality Not available.
Flu Activity Not available.
METAR LGKL 021850Z 00000KT 9999 FEW030 25/21 Q1012

10-Day Weather Forecast

×

Almanac

Astronomy

Sep. 02, 2015 Rise Set
Actual Time
Civil Twilight
Nautical Twilight
Astronomical Twilight
Moon
Length of Visible Light
Length of Day
Tomorrow will be .
, % of the Moon is Illuminated

Today's Extremes

Country Highs Country Lows

Community

WunderPhotos

Upload Photos

1,851,799 photos uploaded!

WunderBlogs® & News

Nearby

Air Quality

  Air Quality AQ Index Pollutant
Not available.

Snow Depth

Station Depth Elevation

Earthquake Activity

City Distance Mag. Time & Date
Minimum magnitude displayed is 2.5.

Coastal Water Temperatures

Place Temperature

Stations

Nearby Weather Stations

Station Location Temp. Windchill Dew Point Humidity Wind Precip. Elev Updated Type